Time;durP1;ratioP1;P1;durP2;ratioP2;P2;SDS_P1;SDS_P2;PMS_P1;PMS_P2;Temp;Humidity;BMP_temperature;BMP_pressure;BME280_temperature;BME280_humidity;BME280_pressure;Samples;Min_cycle;Max_cycle;Signal;HPM_P1;HPM_P2
2021/10/02 00:31:31;;;;;;;;;;;;;;;9.77;50.54;95369.22;4958388;28;19924;-61
2021/10/02 00:37:04;;;;;;;;;;;;;;;10.74;48.49;95356.13;4960125;28;19929;-61
2021/10/02 00:44:59;;;;;;;;;;;;;;;10.17;50.37;95358.41;4958689;28;19933;-61
2021/10/02 00:47:26;;;;;;;;;;;;;;;10.61;49.37;95351.44;4959729;28;19922;-61
2021/10/02 00:49:52;;;;;;;;;;;;;;;10.69;48.90;95347.03;4962115;28;19914;-61
2021/10/02 00:52:17;;;;;;;;;;;;;;;10.60;49.12;95347.16;4966697;28;20380;-61
2021/10/02 00:54:43;;;;;;;;;;;;;;;10.74;48.63;95345.47;4957889;28;20064;-61
2021/10/02 00:57:08;;;;;;;;;;;;;;;10.60;49.73;95344.47;4961870;28;19944;-61
2021/10/02 00:59:34;;;;;;;;;;;;;;;10.57;49.40;95341.38;4961586;28;19929;-62
2021/10/02 01:02:02;;;;;;;;;;;;;;;10.62;49.70;95344.31;4961954;28;20378;-62
2021/10/02 01:04:43;;;;;;;;;;;;;;;10.27;50.99;95338.72;4961693;28;20394;-62
2021/10/02 01:07:24;;;;;;;;;;;;;;;10.55;50.39;95338.06;4949711;28;20053;-62
2021/10/02 01:09:55;;;;;;;;;;;;;;;10.56;49.80;95331.72;4962157;28;19914;-62
2021/10/02 01:12:39;;;;;;;;;;;;;;;10.60;49.15;95335.66;4961786;28;20196;-62
2021/10/02 01:15:06;;;;;;;;;;;;;;;10.73;48.11;95325.19;4959096;28;19914;-62
2021/10/02 01:17:42;;;;;;;;;;;;;;;10.90;48.84;95316.16;4957721;28;20116;-59
2021/10/02 01:20:07;;;;;;;;;;;;;;;10.96;49.56;95326.91;4963563;28;19968;-61
2021/10/02 01:22:35;;;;;;;;;;;;;;;10.87;49.40;95323.50;4966007;28;20347;-61
2021/10/02 01:25:03;;;;;;;;;;;;;;;10.77;50.17;95319.50;4965911;28;20474;-61
2021/10/02 01:27:46;;;;;;;;;;;;;;;11.02;49.16;95324.47;4965569;28;19941;-61
2021/10/02 01:30:22;;;;;;;;;;;;;;;9.45;53.30;95331.25;4964996;28;20595;-61
2021/10/02 01:33:05;;;;;;;;;;;;;;;10.38;51.41;95324.94;4965331;28;19922;-61
2021/10/02 01:35:43;;;;;;;;;;;;;;;10.62;50.82;95328.31;4964295;28;19914;-62
2021/10/02 01:49:04;;;;;;;;;;;;;;;10.70;50.93;95319.41;4983331;28;19924;-62
2021/10/02 01:51:29;;;;;;;;;;;;;;;10.72;50.54;95320.06;4983225;28;19914;-60
2021/10/02 01:53:54;;;;;;;;;;;;;;;10.18;52.18;95319.34;4983560;28;20000;-59
2021/10/02 01:56:19;;;;;;;;;;;;;;;8.97;56.07;95326.13;4983096;28;19914;-58
2021/10/02 01:58:45;;;;;;;;;;;;;;;9.44;55.11;95308.34;4984170;28;20386;-58
2021/10/02 02:01:10;;;;;;;;;;;;;;;10.12;53.21;95306.75;4984822;28;20174;-59
2021/10/02 02:03:39;;;;;;;;;;;;;;;9.92;53.49;95309.91;4982823;28;19922;-59
2021/10/02 02:06:04;;;;;;;;;;;;;;;10.27;52.37;95302.25;4983299;28;20493;-59
2021/10/02 02:08:29;;;;;;;;;;;;;;;10.42;51.64;95296.13;4984774;28;19914;-61
2021/10/02 02:10:55;;;;;;;;;;;;;;;10.59;51.80;95294.91;4963548;28;20395;-61
2021/10/02 02:13:20;;;;;;;;;;;;;;;9.56;53.99;95290.16;4964170;28;19910;-61
2021/10/02 02:15:45;;;;;;;;;;;;;;;10.39;52.37;95285.84;4969108;28;20135;-59
2021/10/02 02:18:11;;;;;;;;;;;;;;;10.61;51.74;95284.09;4981062;28;20231;-61
2021/10/02 02:20:39;;;;;;;;;;;;;;;10.63;51.17;95284.72;4968346;28;20351;-61
2021/10/02 02:23:04;;;;;;;;;;;;;;;10.54;51.33;95280.53;4964602;28;20057;-61
2021/10/02 02:25:29;;;;;;;;;;;;;;;10.72;49.83;95278.25;4963856;28;20350;-60
2021/10/02 02:27:55;;;;;;;;;;;;;;;10.83;48.37;95284.94;4963280;28;20590;-61
2021/10/02 02:30:20;;;;;;;;;;;;;;;10.96;50.63;95283.44;4964757;28;20483;-61
2021/10/02 02:32:46;;;;;;;;;;;;;;;11.03;49.85;95296.81;4964675;28;20054;-61
2021/10/02 02:35:11;;;;;;;;;;;;;;;10.94;48.99;95288.97;4964319;28;20305;-61
2021/10/02 02:37:36;;;;;;;;;;;;;;;10.83;50.59;95290.28;4964536;28;20074;-61
2021/10/02 02:40:02;;;;;;;;;;;;;;;10.79;50.53;95293.50;4964500;28;19937;-61
2021/10/02 02:42:27;;;;;;;;;;;;;;;10.78;50.37;95289.19;4964648;28;20676;-61
2021/10/02 02:44:53;;;;;;;;;;;;;;;10.79;50.81;95282.84;4957573;28;19954;-61
2021/10/02 02:47:20;;;;;;;;;;;;;;;10.85;50.44;95290.91;4961385;28;19926;-61
2021/10/02 02:49:59;;;;;;;;;;;;;;;10.74;49.24;95283.41;4963280;28;19936;-60
2021/10/02 02:52:25;;;;;;;;;;;;;;;10.83;50.84;95284.94;4962646;28;19918;-61
2021/10/02 02:54:53;;;;;;;;;;;;;;;11.02;50.03;95292.53;4964256;28;20237;-61
2021/10/02 02:57:22;;;;;;;;;;;;;;;10.88;49.73;95289.69;4964453;28;20311;-61
2021/10/02 02:59:50;;;;;;;;;;;;;;;10.79;50.31;95294.34;4962791;28;20020;-61
2021/10/02 03:02:16;;;;;;;;;;;;;;;10.35;51.59;95291.56;4964664;28;20434;-61
2021/10/02 03:04:41;;;;;;;;;;;;;;;10.58;50.97;95285.25;4963883;28;20212;-61
2021/10/02 03:07:07;;;;;;;;;;;;;;;10.31;52.23;95292.09;4964139;28;20004;-61
2021/10/02 03:09:33;;;;;;;;;;;;;;;10.77;50.37;95288.34;4964063;28;19913;-61
2021/10/02 03:11:58;;;;;;;;;;;;;;;10.71;51.18;95283.78;4962125;28;19965;-61
2021/10/02 03:14:23;;;;;;;;;;;;;;;10.82;50.54;95293.13;4969045;28;19914;-61
2021/10/02 03:16:50;;;;;;;;;;;;;;;10.94;49.09;95285.47;4958810;28;20167;-65
2021/10/02 03:19:15;;;;;;;;;;;;;;;10.82;50.38;95288.63;4957835;28;19918;-61
2021/10/02 03:21:40;;;;;;;;;;;;;;;10.35;51.19;95280.06;4962647;28;19920;-61
2021/10/02 03:24:06;;;;;;;;;;;;;;;10.38;50.42;95289.53;4962436;28;20322;-61
2021/10/02 03:26:31;;;;;;;;;;;;;;;10.40;51.70;95290.19;4963736;28;19977;-61
2021/10/02 03:28:56;;;;;;;;;;;;;;;9.62;53.86;95288.63;4962360;28;19946;-61
2021/10/02 03:31:22;;;;;;;;;;;;;;;10.21;51.79;95284.41;4963553;28;19924;-61
2021/10/02 03:33:47;;;;;;;;;;;;;;;10.39;51.74;95285.84;4963996;28;20279;-62
2021/10/02 03:36:13;;;;;;;;;;;;;;;10.47;51.70;95291.06;4962186;28;19965;-61
2021/10/02 03:38:38;;;;;;;;;;;;;;;10.13;52.50;95290.63;4962600;28;19910;-61
2021/10/02 03:41:03;;;;;;;;;;;;;;;10.62;50.23;95293.72;4963847;28;19917;-61
2021/10/02 03:43:29;;;;;;;;;;;;;;;10.31;51.79;95297.41;4962329;28;20515;-61
2021/10/02 03:45:55;;;;;;;;;;;;;;;10.16;51.36;95297.44;4952857;28;19918;-61
2021/10/02 03:48:20;;;;;;;;;;;;;;;9.46;54.83;95301.03;4961983;28;20387;-62
2021/10/02 03:50:45;;;;;;;;;;;;;;;10.18;52.79;95292.75;4963277;28;19918;-61
2021/10/02 03:53:10;;;;;;;;;;;;;;;10.13;52.35;95295.13;4963259;28;19918;-61
2021/10/02 03:55:36;;;;;;;;;;;;;;;10.45;51.24;95280.63;4963114;28;20266;-62
2021/10/02 03:58:01;;;;;;;;;;;;;;;10.45;50.69;95282.44;4963504;28;20483;-62
2021/10/02 04:00:27;;;;;;;;;;;;;;;10.71;51.18;95289.13;4963017;28;19921;-62
2021/10/02 04:02:52;;;;;;;;;;;;;;;10.63;51.27;95279.38;4962673;28;19925;-62
2021/10/02 04:05:17;;;;;;;;;;;;;;;10.51;52.23;95278.22;4963656;28;19932;-62
2021/10/02 04:07:42;;;;;;;;;;;;;;;10.60;52.02;95285.06;4962963;28;19918;-62
2021/10/02 04:10:08;;;;;;;;;;;;;;;10.78;51.25;95284.66;4946457;28;19918;-62
2021/10/02 04:12:33;;;;;;;;;;;;;;;10.03;53.51;95274.09;4951110;28;19914;-62
2021/10/02 04:14:58;;;;;;;;;;;;;;;9.75;54.49;95278.19;4954033;28;20491;-62
2021/10/02 04:17:24;;;;;;;;;;;;;;;9.99;54.21;95278.94;4944435;28;20351;-62
2021/10/02 04:19:49;;;;;;;;;;;;;;;10.29;52.99;95271.00;4955941;28;19918;-62
2021/10/02 04:22:14;;;;;;;;;;;;;;;10.19;53.08;95260.63;4944677;28;20450;-61
2021/10/02 04:24:40;;;;;;;;;;;;;;;10.28;52.39;95256.06;4944486;28;19976;-61
2021/10/02 04:27:06;;;;;;;;;;;;;;;10.24;53.42;95265.41;4943604;28;20343;-62
2021/10/02 04:29:31;;;;;;;;;;;;;;;9.84;55.07;95262.97;4944680;28;20139;-62
2021/10/02 04:31:56;;;;;;;;;;;;;;;9.86;54.95;95260.94;4953431;28;20340;-62
2021/10/02 04:34:21;;;;;;;;;;;;;;;10.08;54.24;95255.78;4947010;28;19918;-59
2021/10/02 04:36:47;;;;;;;;;;;;;;;9.89;54.85;95262.44;4948190;28;20526;-60
2021/10/02 04:39:12;;;;;;;;;;;;;;;8.97;57.48;95257.91;4946912;28;19925;-61
2021/10/02 04:41:37;;;;;;;;;;;;;;;9.93;54.93;95242.47;4943818;28;20372;-61
2021/10/02 04:44:03;;;;;;;;;;;;;;;9.64;55.67;95238.75;4944179;28;20231;-61
2021/10/02 04:46:28;;;;;;;;;;;;;;;8.29;59.24;95259.25;4953582;28;20009;-61
2021/10/02 04:48:53;;;;;;;;;;;;;;;9.01;57.90;95245.91;4943776;28;19914;-61
2021/10/02 04:51:18;;;;;;;;;;;;;;;9.74;55.65;95254.44;4943271;28;19914;-62
2021/10/02 04:53:44;;;;;;;;;;;;;;;9.88;54.90;95243.00;4944029;28;20272;-61
2021/10/02 04:56:12;;;;;;;;;;;;;;;9.43;56.50;95242.94;4943228;28;19926;-62
2021/10/02 04:58:37;;;;;;;;;;;;;;;9.00;57.28;95249.59;4943886;28;19925;-61
2021/10/02 05:01:03;;;;;;;;;;;;;;;9.55;56.48;95241.50;4943435;28;19914;-61
2021/10/02 05:03:28;;;;;;;;;;;;;;;10.00;54.89;95238.06;4954246;28;19918;-62
2021/10/02 05:05:53;;;;;;;;;;;;;;;9.98;54.90;95251.53;4942987;28;20387;-62
2021/10/02 05:08:19;;;;;;;;;;;;;;;8.72;59.07;95260.69;4959460;28;19914;-62
2021/10/02 05:10:44;;;;;;;;;;;;;;;9.38;56.77;95247.97;4961818;28;19914;-62
2021/10/02 05:13:09;;;;;;;;;;;;;;;10.04;54.63;95255.31;4952754;28;19916;-62
2021/10/02 05:15:35;;;;;;;;;;;;;;;10.29;54.01;95247.03;4959086;28;20486;-62
2021/10/02 05:18:00;;;;;;;;;;;;;;;8.20;60.26;95254.13;4961595;28;20014;-62
2021/10/02 05:20:25;;;;;;;;;;;;;;;9.18;57.41;95248.47;4961546;28;19987;-62
2021/10/02 05:22:51;;;;;;;;;;;;;;;9.37;56.84;95249.78;4961822;28;20043;-62
2021/10/02 05:25:16;;;;;;;;;;;;;;;9.89;55.30;95249.16;4962215;28;19971;-62
2021/10/02 05:27:41;;;;;;;;;;;;;;;10.30;53.75;95251.34;4961991;28;19997;-62
2021/10/02 05:30:07;;;;;;;;;;;;;;;9.94;55.40;95260.06;4961821;28;19967;-62
2021/10/02 05:32:32;;;;;;;;;;;;;;;10.18;54.17;95251.00;4962028;28;20438;-62
2021/10/02 05:34:57;;;;;;;;;;;;;;;8.88;57.20;95269.56;4962128;28;19967;-62
2021/10/02 05:37:23;;;;;;;;;;;;;;;9.39;56.28;95254.94;4961684;28;19967;-62
2021/10/02 05:39:48;;;;;;;;;;;;;;;9.60;56.08;95259.56;4962248;28;19997;-62
2021/10/02 05:42:14;;;;;;;;;;;;;;;10.19;54.15;95260.63;4962161;28;20371;-62
2021/10/02 05:44:39;;;;;;;;;;;;;;;9.68;55.90;95263.97;4956299;28;19994;-62
2021/10/02 05:47:05;;;;;;;;;;;;;;;10.24;53.55;95265.41;4957069;28;20449;-62
2021/10/02 05:49:30;;;;;;;;;;;;;;;9.42;56.56;95262.56;4962441;28;19967;-62
2021/10/02 05:51:55;;;;;;;;;;;;;;;9.63;56.40;95255.72;4961624;28;20487;-60
2021/10/02 05:54:21;;;;;;;;;;;;;;;9.98;55.28;95258.69;4961890;28;19981;-60
2021/10/02 05:56:47;;;;;;;;;;;;;;;10.36;53.76;95253.28;4961225;28;19997;-62
2021/10/02 05:59:12;;;;;;;;;;;;;;;10.56;53.21;95258.03;4961769;28;19989;-62
2021/10/02 06:01:38;;;;;;;;;;;;;;;8.76;57.80;95269.94;4961590;28;19966;-61
2021/10/02 06:04:03;;;;;;;;;;;;;;;10.08;55.08;95261.94;4961579;28;20110;-62
2021/10/02 06:06:28;;;;;;;;;;;;;;;9.61;56.08;95263.88;4964260;28;20028;-62
2021/10/02 06:08:53;;;;;;;;;;;;;;;10.02;55.25;95259.13;4965399;28;19986;-62
2021/10/02 06:11:19;;;;;;;;;;;;;;;10.32;54.29;95253.84;4963659;28;19994;-62
2021/10/02 06:13:44;;;;;;;;;;;;;;;9.33;57.18;95256.47;4962171;28;19969;-62
2021/10/02 06:16:09;;;;;;;;;;;;;;;9.51;56.59;95258.81;4949089;28;20006;-62
2021/10/02 06:18:35;;;;;;;;;;;;;;;10.10;54.73;95262.56;4954402;28;19978;-62
2021/10/02 06:21:00;;;;;;;;;;;;;;;10.19;54.73;95260.63;4951443;28;20396;-62
2021/10/02 06:23:28;;;;;;;;;;;;;;;10.33;53.10;95266.13;4946134;28;20294;-62
2021/10/02 06:25:53;;;;;;;;;;;;;;;10.43;53.96;95268.50;4947016;28;19967;-62
2021/10/02 06:28:20;;;;;;;;;;;;;;;10.53;53.57;95273.53;4946024;28;20243;-62
2021/10/02 06:30:45;;;;;;;;;;;;;;;10.46;52.08;95268.97;4947693;28;19967;-62
2021/10/02 06:33:10;;;;;;;;;;;;;;;10.65;52.92;95266.72;4957159;28;20288;-63
2021/10/02 06:35:35;;;;;;;;;;;;;;;10.44;53.09;95270.97;4946339;28;20467;-62
2021/10/02 06:38:01;;;;;;;;;;;;;;;9.80;54.82;95251.88;4952890;28;20375;-62
2021/10/02 06:40:26;;;;;;;;;;;;;;;10.26;53.69;95258.06;4949583;28;20225;-62
2021/10/02 06:42:52;;;;;;;;;;;;;;;10.42;52.68;95259.69;4941732;28;20231;-62
2021/10/02 06:45:17;;;;;;;;;;;;;;;10.59;52.19;95265.63;4944809;28;20046;-62
2021/10/02 06:47:43;;;;;;;;;;;;;;;9.83;53.87;95270.13;4941887;28;20426;-62
2021/10/02 06:50:08;;;;;;;;;;;;;;;10.62;52.16;95280.41;4942917;28;20531;-62
2021/10/02 06:52:33;;;;;;;;;;;;;;;10.14;53.35;95288.78;4942548;28;19991;-63
2021/10/02 06:54:58;;;;;;;;;;;;;;;10.58;52.36;95289.78;4942262;28;20010;-62
2021/10/02 06:57:24;;;;;;;;;;;;;;;10.43;52.47;95281.78;4945789;28;19982;-62
2021/10/02 06:59:49;;;;;;;;;;;;;;;10.54;52.37;95281.31;4942055;28;20356;-62
2021/10/02 07:02:14;;;;;;;;;;;;;;;10.58;51.28;95274.63;4942142;28;20278;-62
2021/10/02 07:04:40;;;;;;;;;;;;;;;10.36;52.70;95266.59;4941667;28;19999;-62
2021/10/02 07:07:05;;;;;;;;;;;;;;;10.06;53.32;95271.06;4960010;28;20329;-62
2021/10/02 07:09:30;;;;;;;;;;;;;;;8.89;57.53;95279.16;4960413;28;20534;-62
2021/10/02 07:11:56;;;;;;;;;;;;;;;9.91;54.17;95274.53;4957905;28;20150;-62
2021/10/02 07:14:21;;;;;;;;;;;;;;;8.14;60.17;95285.66;4951064;28;20595;-62
2021/10/02 07:16:47;;;;;;;;;;;;;;;9.20;56.21;95280.97;4957978;28;19964;-62
2021/10/02 07:19:12;;;;;;;;;;;;;;;9.16;56.33;95277.03;4959303;28;19972;-62
2021/10/02 07:21:37;;;;;;;;;;;;;;;9.92;54.50;95270.03;4957621;28;19984;-62
2021/10/02 07:24:03;;;;;;;;;;;;;;;10.13;51.24;95269.34;4960074;28;20338;-62
2021/10/02 07:26:28;;;;;;;;;;;;;;;10.21;52.33;95271.91;4960365;28;19940;-62
2021/10/02 07:28:53;;;;;;;;;;;;;;;10.06;51.46;95273.75;4959608;28;19918;-62
2021/10/02 07:31:19;;;;;;;;;;;;;;;9.97;53.73;95273.78;4959228;28;20192;-62
2021/10/02 07:33:45;;;;;;;;;;;;;;;10.19;52.00;95268.63;4959525;28;19914;-62
2021/10/02 07:36:10;;;;;;;;;;;;;;;10.08;51.15;95272.56;4959344;28;19957;-62
2021/10/02 07:38:35;;;;;;;;;;;;;;;9.88;52.20;95271.41;4959776;28;20182;-62
2021/10/02 07:41:01;;;;;;;;;;;;;;;10.43;51.60;95271.16;4959384;28;19988;-62
2021/10/02 07:43:26;;;;;;;;;;;;;;;7.41;62.22;95283.75;4957526;28;19922;-62
2021/10/02 07:45:52;;;;;;;;;;;;;;;9.61;55.79;95276.31;4950106;28;19913;-62
2021/10/02 07:48:22;;;;;;;;;;;;;;;10.16;51.95;95273.50;4958034;28;19918;-62
2021/10/02 07:50:48;;;;;;;;;;;;;;;10.74;52.23;95273.59;4959107;28;19950;-62
2021/10/02 07:53:13;;;;;;;;;;;;;;;10.65;51.45;95268.56;4958475;28;20508;-62
2021/10/02 07:55:39;;;;;;;;;;;;;;;10.91;50.55;95267.22;4959395;28;19924;-62
2021/10/02 07:58:04;;;;;;;;;;;;;;;10.91;49.98;95268.03;4959785;28;20295;-62
2021/10/02 08:00:29;;;;;;;;;;;;;;;11.10;49.58;95269.28;4959616;28;19950;-62
2021/10/02 08:02:55;;;;;;;;;;;;;;;11.18;51.10;95262.19;4960793;28;19929;-62
2021/10/02 08:05:21;;;;;;;;;;;;;;;11.26;50.30;95262.06;4953708;28;20291;-62
2021/10/02 08:07:46;;;;;;;;;;;;;;;9.32;56.52;95268.91;4956327;28;20021;-62
2021/10/02 08:10:12;;;;;;;;;;;;;;;10.65;53.12;95264.06;4960409;28;20291;-62
2021/10/02 08:12:37;;;;;;;;;;;;;;;11.04;52.15;95259.34;4953406;28;19925;-61
2021/10/02 08:15:03;;;;;;;;;;;;;;;11.00;51.58;95268.72;4957003;28;20017;-61
2021/10/02 08:17:28;;;;;;;;;;;;;;;10.86;49.33;95267.78;4961424;28;20069;-61
2021/10/02 08:19:59;;;;;;;;;;;;;;;10.78;52.74;95270.56;4961321;28;19918;-61
2021/10/02 08:22:25;;;;;;;;;;;;;;;11.12;51.01;95267.25;4960166;28;19914;-61
2021/10/02 08:24:51;;;;;;;;;;;;;;;10.84;51.06;95269.78;4961113;28;20803;-61
2021/10/02 08:27:16;;;;;;;;;;;;;;;11.27;48.99;95263.69;4960416;28;19981;-60
2021/10/02 08:29:41;;;;;;;;;;;;;;;11.06;50.06;95257.34;4959507;28;20081;-59
2021/10/02 08:32:06;;;;;;;;;;;;;;;11.08;50.05;95239.31;4960948;28;19972;-59
2021/10/02 08:34:32;;;;;;;;;;;;;;;11.70;47.34;95219.31;4959601;28;19920;-58
2021/10/02 08:36:57;;;;;;;;;;;;;;;11.54;50.84;95221.28;4959170;28;19929;-58
2021/10/02 08:39:22;;;;;;;;;;;;;;;11.76;46.64;95224.69;4960563;28;19982;-60
2021/10/02 08:41:47;;;;;;;;;;;;;;;12.10;49.38;95222.25;4960840;28;19918;-61
2021/10/02 08:44:16;;;;;;;;;;;;;;;12.26;46.05;95222.94;4956953;28;20430;-61
2021/10/02 08:46:42;;;;;;;;;;;;;;;11.95;49.14;95219.69;4967514;28;19917;-61
2021/10/02 08:49:26;;;;;;;;;;;;;;;12.58;47.22;95215.25;4978261;28;19917;-61
2021/10/02 08:51:51;;;;;;;;;;;;;;;10.74;50.58;95222.16;4979559;28;19925;-61
2021/10/02 08:54:17;;;;;;;;;;;;;;;10.37;53.10;95222.16;4978424;28;19921;-61
2021/10/02 08:56:42;;;;;;;;;;;;;;;9.41;58.18;95229.81;4979253;28;19918;-61
2021/10/02 08:59:07;;;;;;;;;;;;;;;11.74;50.03;95224.09;4977739;28;19972;-61
2021/10/02 09:01:33;;;;;;;;;;;;;;;10.43;55.00;95226.75;4979759;28;20355;-61
2021/10/02 09:03:58;;;;;;;;;;;;;;;11.93;50.69;95215.56;4979686;28;20375;-61
2021/10/02 09:06:23;;;;;;;;;;;;;;;11.86;50.53;95218.19;4966987;28;19914;-61
2021/10/02 09:08:48;;;;;;;;;;;;;;;11.85;50.17;95220.03;4979608;28;20524;-61
2021/10/02 09:11:14;;;;;;;;;;;;;;;11.34;51.96;95218.44;4978878;28;19921;-61
2021/10/02 09:13:39;;;;;;;;;;;;;;;12.14;50.12;95226.16;4979762;28;20008;-61
2021/10/02 09:16:04;;;;;;;;;;;;;;;12.49;47.90;95209.28;4979088;28;20186;-61
2021/10/02 09:18:30;;;;;;;;;;;;;;;11.68;50.94;95206.19;4979277;28;20197;-61
2021/10/02 09:21:05;;;;;;;;;;;;;;;11.97;48.61;95204.28;4961134;28;20280;-61
2021/10/02 09:23:32;;;;;;;;;;;;;;;12.82;45.59;95182.88;4958348;28;19922;-61
2021/10/02 09:25:58;;;;;;;;;;;;;;;13.26;47.36;95180.69;4960068;28;19914;-61
2021/10/02 09:28:23;;;;;;;;;;;;;;;13.15;47.18;95184.78;4959743;28;19924;-61
2021/10/02 09:30:49;;;;;;;;;;;;;;;12.23;50.38;95189.47;4960117;28;19929;-61
2021/10/02 09:33:22;;;;;;;;;;;;;;;13.05;47.63;95195.88;4960186;28;19921;-62
2021/10/02 09:35:47;;;;;;;;;;;;;;;11.78;51.71;95187.16;4959156;28;20203;-62
2021/10/02 09:38:19;;;;;;;;;;;;;;;11.34;52.66;95184.63;4959250;28;20662;-61
2021/10/02 09:40:51;;;;;;;;;;;;;;;10.49;55.14;95182.59;4960992;28;19922;-58
2021/10/02 09:43:17;;;;;;;;;;;;;;;11.98;49.48;95183.78;4963563;28;19932;-59
2021/10/02 09:45:42;;;;;;;;;;;;;;;11.99;51.05;95174.75;4953360;28;19918;-59
2021/10/02 09:48:08;;;;;;;;;;;;;;;12.83;48.21;95171.97;4963319;28;19918;-62
2021/10/02 09:50:40;;;;;;;;;;;;;;;12.42;49.27;95177.22;4963423;28;19996;-61
2021/10/02 09:53:06;;;;;;;;;;;;;;;12.65;49.27;95184.06;4982631;28;20009;-61
2021/10/02 09:55:35;;;;;;;;;;;;;;;11.74;51.33;95181.41;4982430;28;19955;-59
2021/10/02 09:58:02;;;;;;;;;;;;;;;11.03;51.54;95182.28;4982938;28;20163;-60
2021/10/02 10:00:29;;;;;;;;;;;;;;;11.92;50.90;95176.56;4982217;28;19918;-61
2021/10/02 10:02:54;;;;;;;;;;;;;;;11.02;53.31;95181.47;4982388;28;19925;-61
2021/10/02 10:05:19;;;;;;;;;;;;;;;12.06;48.45;95172.97;4977057;28;20275;-61
2021/10/02 10:07:55;;;;;;;;;;;;;;;12.52;49.18;95166.16;4975301;28;19963;-61
2021/10/02 10:10:21;;;;;;;;;;;;;;;12.62;46.57;95156.94;4982856;28;20333;-61
2021/10/02 10:12:46;;;;;;;;;;;;;;;13.01;47.48;95173.25;4981598;28;19921;-61
2021/10/02 10:15:30;;;;;;;;;;;;;;;13.14;44.32;95156.41;4982611;28;20405;-62
2021/10/02 10:17:55;;;;;;;;;;;;;;;13.05;45.76;95158.44;4982263;28;20382;-62
2021/10/02 10:20:28;;;;;;;;;;;;;;;13.33;46.81;95154.78;4969473;28;19957;-62
2021/10/02 10:22:57;;;;;;;;;;;;;;;11.43;52.15;95165.81;4962816;28;20004;-62
2021/10/02 10:25:22;;;;;;;;;;;;;;;12.12;51.48;95150.00;4963372;28;20291;-62
2021/10/02 10:27:48;;;;;;;;;;;;;;;12.31;48.30;95143.13;4962420;28;20645;-61
2021/10/02 10:30:14;;;;;;;;;;;;;;;12.59;49.68;95152.84;4963379;28;19925;-62
2021/10/02 10:32:55;;;;;;;;;;;;;;;12.97;45.14;95135.41;4962227;28;20008;-62
2021/10/02 10:35:20;;;;;;;;;;;;;;;12.76;49.57;95145.28;4963032;28;19917;-62
2021/10/02 10:37:45;;;;;;;;;;;;;;;12.98;47.13;95137.06;4963022;28;20403;-62
2021/10/02 10:40:11;;;;;;;;;;;;;;;12.88;48.95;95147.31;4960897;28;19917;-62
2021/10/02 10:42:36;;;;;;;;;;;;;;;12.62;50.28;95135.59;4962802;28;19922;-62
2021/10/02 10:45:02;;;;;;;;;;;;;;;13.26;48.52;95124.53;4954330;28;19998;-62
2021/10/02 10:47:27;;;;;;;;;;;;;;;13.49;47.66;95118.75;4970961;28;20383;-62
2021/10/02 10:49:52;;;;;;;;;;;;;;;13.21;46.62;95110.97;4955098;28;19999;-62
2021/10/02 10:52:18;;;;;;;;;;;;;;;13.66;47.47;95108.41;4962223;28;20116;-62
2021/10/02 10:54:44;;;;;;;;;;;;;;;13.89;47.31;95107.16;4960631;28;19953;-62
2021/10/02 10:57:28;;;;;;;;;;;;;;;12.56;49.79;95115.03;4962973;28;19965;-58
2021/10/02 10:59:53;;;;;;;;;;;;;;;13.22;48.63;95108.09;4962205;28;19993;-60
2021/10/02 11:02:37;;;;;;;;;;;;;;;13.73;46.20;95099.56;4961831;28;20480;-60
2021/10/02 11:05:03;;;;;;;;;;;;;;;13.50;46.35;95103.53;4961880;28;20425;-61
2021/10/02 11:07:47;;;;;;;;;;;;;;;13.68;46.43;95103.69;4962156;28;19917;-61
2021/10/02 11:10:43;;;;;;;;;;;;;;;12.60;49.84;95095.72;4961790;28;19913;-61
2021/10/02 11:13:08;;;;;;;;;;;;;;;13.35;47.41;95082.34;4953712;28;20453;-62
2021/10/02 11:15:34;;;;;;;;;;;;;;;14.26;45.62;95092.34;4958946;28;20025;-62
2021/10/02 11:17:59;;;;;;;;;;;;;;;14.50;45.07;95089.94;4961438;28;20630;-62
2021/10/02 11:20:28;;;;;;;;;;;;;;;14.81;44.25;95083.78;4961420;28;19918;-62
2021/10/02 11:23:13;;;;;;;;;;;;;;;14.82;44.33;95084.63;4960981;28;20549;-62
2021/10/02 11:25:39;;;;;;;;;;;;;;;14.46;43.62;95081.53;4961136;28;19918;-62
2021/10/02 11:28:22;;;;;;;;;;;;;;;14.65;44.50;95085.09;4959666;28;19926;-62
2021/10/02 11:30:48;;;;;;;;;;;;;;;14.13;45.70;95087.88;4960992;28;20464;-62
2021/10/02 11:33:33;;;;;;;;;;;;;;;14.21;45.29;95084.97;4961754;28;20175;-62
2021/10/02 11:35:58;;;;;;;;;;;;;;;13.76;46.51;95083.91;4961485;28;19925;-62
2021/10/02 11:38:36;;;;;;;;;;;;;;;13.20;47.73;95085.28;4961822;28;20150;-62
2021/10/02 11:41:01;;;;;;;;;;;;;;;12.92;48.88;95085.25;4960813;28;19918;-62
2021/10/02 11:43:27;;;;;;;;;;;;;;;13.33;48.10;95076.41;4959395;28;19953;-62
2021/10/02 11:45:53;;;;;;;;;;;;;;;13.59;47.66;95070.16;4952184;28;19917;-62
2021/10/02 11:48:39;;;;;;;;;;;;;;;12.53;50.44;95070.88;4961360;28;20013;-62
2021/10/02 11:51:12;;;;;;;;;;;;;;;11.36;54.04;95075.19;4949226;28;19922;-62
2021/10/02 11:53:47;;;;;;;;;;;;;;;12.97;48.91;95065.13;4961477;28;19913;-62
2021/10/02 11:56:18;;;;;;;;;;;;;;;13.28;48.23;95061.81;4960820;28;20270;-62
2021/10/02 11:58:44;;;;;;;;;;;;;;;14.02;46.27;95057.28;4960779;28;19928;-62
2021/10/02 12:01:30;;;;;;;;;;;;;;;14.65;44.04;95042.25;4960919;28;20097;-62
2021/10/02 12:04:02;;;;;;;;;;;;;;;14.76;44.54;95039.94;4960271;28;19922;-62
2021/10/02 12:06:28;;;;;;;;;;;;;;;14.98;44.85;95040.34;4961167;28;19914;-62
2021/10/02 12:08:53;;;;;;;;;;;;;;;14.48;44.69;95035.78;4960656;28;20397;-62
2021/10/02 12:11:18;;;;;;;;;;;;;;;15.13;43.91;95037.31;4960407;28;19929;-62
2021/10/02 12:13:49;;;;;;;;;;;;;;;14.77;44.37;95041.56;4955737;28;19918;-62
2021/10/02 12:16:15;;;;;;;;;;;;;;;15.04;44.38;95052.88;4957659;28;20522;-62
2021/10/02 12:19:03;;;;;;;;;;;;;;;14.71;45.00;95049.41;4961268;28;19957;-62
2021/10/02 12:21:28;;;;;;;;;;;;;;;13.18;48.96;95054.25;4965015;28;19941;-62
2021/10/02 12:24:10;;;;;;;;;;;;;;;12.97;48.23;95052.59;4961227;28;20199;-62
2021/10/02 12:26:43;;;;;;;;;;;;;;;14.68;43.84;95036.47;4961344;28;19921;-62
2021/10/02 12:29:09;;;;;;;;;;;;;;;14.24;44.33;95027.50;4980375;28;19933;-62
2021/10/02 12:31:47;;;;;;;;;;;;;;;15.41;42.09;95011.06;4980279;28;19918;-62
2021/10/02 12:34:17;;;;;;;;;;;;;;;15.84;41.27;95003.97;4979994;28;20222;-62
2021/10/02 12:36:44;;;;;;;;;;;;;;;15.63;41.01;95000.72;4979836;28;19980;-62
2021/10/02 12:39:09;;;;;;;;;;;;;;;16.26;40.21;94990.56;4977603;28;19922;-62
2021/10/02 12:41:38;;;;;;;;;;;;;;;17.57;36.97;94997.06;4980075;28;19921;-62
2021/10/02 12:44:03;;;;;;;;;;;;;;;16.48;40.02;94986.53;4977613;28;19928;-60
2021/10/02 12:46:28;;;;;;;;;;;;;;;17.79;36.23;94988.34;4980059;28;20365;-62
2021/10/02 12:48:54;;;;;;;;;;;;;;;19.51;33.25;94978.41;4979267;28;19924;-61
2021/10/02 12:51:19;;;;;;;;;;;;;;;21.06;30.71;94969.34;4979260;28;19924;-62
2021/10/02 12:53:44;;;;;;;;;;;;;;;21.69;29.41;94959.66;4978181;28;20518;-61
2021/10/02 12:56:16;;;;;;;;;;;;;;;21.92;28.47;94960.28;4979451;28;19924;-61
2021/10/02 12:58:41;;;;;;;;;;;;;;;20.85;30.89;94952.97;4979750;28;20702;-61
2021/10/02 13:01:06;;;;;;;;;;;;;;;19.06;32.82;94966.75;4978727;28;20297;-61
2021/10/02 13:03:37;;;;;;;;;;;;;;;19.69;31.67;94962.97;4978736;28;20093;-61
2021/10/02 13:06:02;;;;;;;;;;;;;;;21.29;29.09;94957.31;4979140;28;19914;-61
2021/10/02 13:08:28;;;;;;;;;;;;;;;20.10;30.35;94947.22;4978524;28;20274;-61
2021/10/02 13:10:53;;;;;;;;;;;;;;;19.37;30.52;94951.00;4979173;28;19972;-61
2021/10/02 13:13:19;;;;;;;;;;;;;;;22.87;26.28;94957.38;4978932;28;19913;-62
2021/10/02 13:15:54;;;;;;;;;;;;;;;19.58;30.83;94949.34;4979942;28;20142;-60
2021/10/02 13:18:24;;;;;;;;;;;;;;;19.90;30.38;94928.09;4983231;28;19913;-61
2021/10/02 13:20:50;;;;;;;;;;;;;;;20.97;28.91;94931.16;4982750;28;20283;-61
2021/10/02 13:23:20;;;;;;;;;;;;;;;22.35;27.16;94916.69;4982861;28;19928;-61
2021/10/02 13:25:45;;;;;;;;;;;;;;;23.61;24.87;94924.34;4983125;28;19918;-61
2021/10/02 13:28:21;;;;;;;;;;;;;;;23.09;26.04;94913.66;4982782;28;19965;-61
2021/10/02 13:30:46;;;;;;;;;;;;;;;22.36;27.16;94927.28;4982352;28;19921;-61
2021/10/02 13:33:12;;;;;;;;;;;;;;;19.84;30.06;94925.34;4983077;28;19910;-61
2021/10/02 13:35:38;;;;;;;;;;;;;;;23.55;25.22;94920.00;4982296;28;19921;-62
2021/10/02 13:38:07;;;;;;;;;;;;;;;25.67;22.45;94913.91;4982565;28;20221;-62